Accueil
METAR-TAF:

METAR-TAF

Aéroports :

Aéroport de Barnaoul

Barnaoul, Russie

latitude: 53-26N, longitude: 083-31E, altitude: 252 m

Observation

Le bulletin a été fait il y a 40 minutes, à 13:00 UTC
Vent 6 kt de est/nord-est
Température 25°C
Humidité 47%
Pression 1006 hPa
Visibilité 10 km ou plus
pas de nuages en-dessous de 1500 mètres et pas de cumulonimbus.

METAR: UNBB 131300Z 07003MPS CAVOK 25/13 Q1006 R06/CLRD66 NOSIG RMK QFE732

Heure: 20:40 (13:40 UTC)

Prévision

Le bulletin a été fait il y a 2 heures et 40 minutes, à 11:00 UTC
Prévision valable du 13 à 12 UTC au 14 à 12 UTC
Vent 6 kt de est/nord-est avec des rafales jusqu'à 16 kt
Visibilité 10 km ou plus
Nuages épars à une hauteur de 4000 ft, Cumulonimbus.
Temporairement
du 13 à 12 UTC au 14 à 12 UTC
Vent 16 kt de nord

TAF: UNBB 131100Z 1312/1412 06003G08MPS 9999 SCT040CB TEMPO 1312/1412 01008MPS

Observations et prévisions météorologiques de plus de 4000 aéroports (messages METAR et TAF).

Les stations disponibles sont représentées par des disques jaunes et rouges sur la carte.

Passer la souris dessus pour voir le nom de la station.

Cliquer dessus pour voir les observations et prévisions météorologiques.

Pour changer de carte: cliquez sur les boutons verts avec une croix noire pour zoomer, sur le bouton vert avec un tiret pour effectuer un zoom arrière, ou sur les flèches vertes pour les cartes adjacentes.


METAR-TAF: